Flight Track Log - Related Links

Times and Time Zones

All times are in EDT time to prevent confusion due to time zone crossing. See the CHQ6109 flight status page for this flight to view local times or setup timezone preferences in your user account.

Time Position Orientation Groundspeed Altitude Reporting Facility
EDT Latitude Longitude Course Direction KTS MPH feet Rate Location/Type
Sat 04:06:50 PM 42.2039 -83.3697 294° West 164 189 1,300  Level Cleveland Center
Sat 04:07:27 PM 42.1772 -83.3883 207° Southwest 201 231 2,400 2,087 Climbing Cleveland Center
Sat 04:08:22 PM 42.1317 -83.4328 216° Southwest 231 266 4,500 2,276 Climbing Cleveland Center
Sat 04:09:23 PM 42.1486 -83.5111 286° West 237 273 6,800 2,323 Climbing Cleveland Center
Sat 04:10:00 PM 42.3166 -83.7831 294° West  Level FlightAware Approximate
Sat 04:10:26 PM 42.1822 -83.5953 298° West 247 284 9,300  Level Cleveland Center
Sat 04:11:00 PM 42.3450 -83.8916 285° West  Level FlightAware Approximate
Sat 04:11:28 PM 42.2178 -83.6778 300° West 249 287 11,200  Level Cleveland Center
Sat 04:12:00 PM 42.3677 -84.0030 294° West  Level FlightAware Approximate
Sat 04:12:30 PM 42.2564 -83.7736 299° West 285 328 12,700  Level Cleveland Center
Sat 04:13:32 PM 42.2964 -83.8725 299° West 295 339 14,000 634 Climbing Cleveland Center
Sat 04:14:33 PM 42.3372 -83.9861 296° West 334 384 14,000  Level Cleveland Center
Sat 04:15:35 PM 42.3786 -84.0997 296° West 335 386 14,000  Level Cleveland Center
Sat 04:16:37 PM 42.4200 -84.2128 296° West 335 386 14,000  Level Cleveland Center
Sat 04:17:39 PM 42.4686 -84.3503 296° West 336 387 14,000 -145 Level Cleveland Center
Sat 04:18:41 PM 42.5103 -84.4647 296° West 337 388 13,700 -629 Descending Cleveland Center
Sat 04:19:43 PM 42.5500 -84.5756 296° West 330 380 12,700 -1,415 Descending Cleveland Center
Sat 04:20:44 PM 42.5925 -84.6958 296° West 326 375 10,800 -1,317 Descending Cleveland Center
Sat 04:21:46 PM 42.6281 -84.7992 295° West 301 346 10,000 -1,065 Descending Cleveland Center
Sat 04:22:48 PM 42.6581 -84.8842 296° West 255 293 8,600 -1,263 Descending Cleveland Center
Sat 04:23:21 PM 42.6764 -84.9328 297° West 250 288 8,000 -379 Descending Chicago Center
Sat 04:24:23 PM 42.7003 -85.0172 291° West 245 282 8,000 -484 Level Chicago Center
Sat 04:25:25 PM 42.7156 -85.1050 283° West 244 281 7,000 -1,065 Descending Chicago Center
Sat 04:26:27 PM 42.7239 -85.1939 277° West 240 276 5,800 -919 Descending Chicago Center
Sat 04:27:29 PM 42.7144 -85.2819 262° West 239 275 5,100 -339 Descending Chicago Center
Sat 04:28:31 PM 42.6744 -85.3686 238° Southwest 252 290 5,100  Level Chicago Center
Sat 04:29:33 PM 42.6828 -85.4522 278° West 230 265 5,100 -581 Level Chicago Center
Sat 04:30:35 PM 42.7322 -85.4875 332° Northwest 216 249 3,900 -1,161 Descending Chicago Center
Sat 04:31:37 PM 42.7833 -85.4958 353° North 198 228 2,700 -1,065 Descending Chicago Center
Sat 04:32:39 PM 42.8222 -85.5047 350° North 166 191 1,700 -823 Descending Chicago Center
Sat 04:33:41 PM 42.8617 -85.5131 351° North 152 175 1,000 -677 Descending Chicago Center

Login

Don't have an account? Register now (free) for customized features, flight alerts, and more!